createdAt,value
2023-02-14T00:01:50.794Z,2.84
2023-02-14T00:04:19.732Z,2.90
2023-02-14T00:06:48.646Z,2.93
2023-02-14T00:09:19.686Z,2.93
2023-02-14T00:11:48.470Z,2.93
2023-02-14T00:14:35.696Z,2.96
2023-02-14T00:17:04.691Z,2.92
2023-02-14T00:19:34.945Z,2.93
2023-02-14T00:22:04.928Z,2.97
2023-02-14T00:24:33.622Z,2.96
2023-02-14T00:27:02.192Z,2.94
2023-02-14T00:29:32.338Z,2.94
2023-02-14T00:32:01.704Z,2.95
2023-02-14T00:34:30.300Z,2.93
2023-02-14T00:37:00.614Z,2.96
2023-02-14T00:39:29.122Z,2.96
2023-02-14T00:41:57.687Z,2.94
2023-02-14T00:44:26.271Z,2.99
2023-02-14T00:46:54.765Z,3.02
2023-02-14T00:49:25.074Z,3.04
2023-02-14T00:51:53.450Z,3.08
2023-02-14T00:54:21.961Z,3.06
2023-02-14T00:56:50.413Z,3.03
2023-02-14T00:59:19.302Z,3.06
2023-02-14T01:01:47.697Z,3.05
2023-02-14T01:04:16.272Z,3.05
2023-02-14T01:06:44.757Z,3.06
2023-02-14T01:09:14.882Z,3.07
2023-02-14T01:11:43.253Z,3.06
2023-02-14T01:14:11.763Z,3.03
2023-02-14T01:16:40.359Z,3.01
2023-02-14T01:19:09.505Z,2.98
2023-02-14T01:21:38.111Z,3.03
2023-02-14T01:24:08.480Z,3.01
2023-02-14T01:26:37.300Z,3.02
2023-02-14T01:29:06.636Z,3.03
2023-02-14T01:31:35.851Z,3.07
2023-02-14T01:34:04.492Z,3.09
2023-02-14T01:36:37.527Z,3.11
2023-02-14T01:39:14.023Z,3.11
2023-02-14T01:41:45.459Z,3.16
2023-02-14T01:44:17.163Z,3.20
2023-02-14T01:46:46.462Z,3.20
2023-02-14T01:49:20.377Z,3.23
2023-02-14T01:51:53.052Z,3.18
2023-02-14T01:54:24.196Z,3.19
2023-02-14T01:56:59.178Z,3.11
2023-02-14T01:59:34.254Z,3.07
2023-02-14T02:02:03.733Z,3.13
2023-02-14T02:04:40.239Z,3.11
2023-02-14T02:07:17.862Z,3.14
2023-02-14T02:09:59.716Z,3.12
2023-02-14T02:12:30.803Z,3.14
2023-02-14T02:15:00.673Z,3.14
2023-02-14T02:17:52.804Z,3.15
2023-02-14T02:20:29.177Z,3.16
2023-02-14T02:23:23.762Z,3.16
2023-02-14T02:26:10.981Z,3.17
2023-02-14T02:29:10.083Z,3.17
2023-02-14T02:32:03.565Z,3.18
2023-02-14T02:34:56.235Z,3.18
2023-02-14T02:37:41.367Z,3.17
2023-02-14T02:40:25.727Z,3.14
2023-02-14T02:43:08.962Z,3.11
2023-02-14T02:46:12.330Z,3.10
2023-02-14T02:49:41.152Z,3.07
2023-02-14T02:52:41.504Z,3.03
2023-02-14T02:55:23.265Z,3.03
2023-02-14T02:57:53.769Z,2.94
2023-02-14T03:00:24.591Z,2.96
2023-02-14T03:03:16.432Z,2.98
2023-02-14T03:05:45.459Z,2.99
2023-02-14T03:08:17.826Z,2.99
2023-02-14T03:10:46.820Z,3.05
2023-02-14T03:13:27.843Z,3.14
2023-02-14T03:16:21.980Z,3.23
2023-02-14T03:19:16.975Z,3.32
2023-02-14T03:21:55.389Z,3.41
2023-02-14T03:24:33.633Z,3.48
2023-02-14T03:27:32.898Z,3.51
2023-02-14T03:30:13.716Z,3.58
2023-02-14T03:33:06.425Z,3.62
2023-02-14T03:35:44.060Z,3.70
2023-02-14T03:38:22.299Z,3.74
2023-02-14T03:41:04.252Z,3.73
2023-02-14T03:43:57.999Z,3.75
2023-02-14T03:46:32.465Z,3.75
2023-02-14T03:49:06.887Z,3.70
2023-02-14T03:51:37.784Z,3.69
2023-02-14T03:54:11.176Z,3.73
2023-02-14T03:56:48.455Z,3.70
2023-02-14T03:59:25.444Z,3.68
2023-02-14T04:02:27.307Z,3.72
2023-02-14T04:04:59.055Z,3.79
2023-02-14T04:07:27.554Z,3.84
2023-02-14T04:09:56.133Z,3.82
2023-02-14T04:12:37.065Z,3.78
2023-02-14T04:15:07.528Z,3.82
2023-02-14T04:17:54.463Z,3.82
2023-02-14T04:20:23.123Z,3.75
2023-02-14T04:22:54.495Z,3.81
2023-02-14T04:25:23.663Z,3.73
2023-02-14T04:27:52.494Z,3.75
2023-02-14T04:30:23.116Z,3.76
2023-02-14T04:32:51.870Z,3.81
2023-02-14T04:35:20.290Z,3.82
2023-02-14T04:37:48.853Z,3.84
2023-02-14T04:40:17.723Z,3.82
2023-02-14T04:42:47.153Z,3.85
2023-02-14T04:45:15.811Z,3.81
2023-02-14T04:47:44.307Z,3.79
2023-02-14T04:50:13.515Z,3.84
2023-02-14T04:52:42.004Z,3.85
2023-02-14T04:55:10.766Z,3.86
2023-02-14T04:57:39.166Z,3.83
2023-02-14T05:00:08.782Z,3.84
2023-02-14T05:02:37.463Z,3.84
2023-02-14T05:05:06.732Z,3.85
2023-02-14T05:07:35.310Z,3.84
2023-02-14T05:10:05.470Z,3.81
2023-02-14T05:12:34.014Z,3.80
2023-02-14T05:15:02.608Z,3.83
2023-02-14T05:17:31.180Z,3.79
2023-02-14T05:20:00.329Z,3.78
2023-02-14T05:26:05.984Z,3.80
2023-02-14T05:28:34.874Z,3.78
2023-02-14T05:31:03.634Z,3.76
2023-02-14T05:33:32.530Z,3.77
2023-02-14T05:36:03.107Z,3.76
2023-02-14T05:38:33.676Z,3.78
2023-02-14T05:41:03.028Z,3.76
2023-02-14T05:43:32.175Z,3.73
2023-02-14T05:46:00.748Z,3.72
2023-02-14T05:48:29.873Z,3.74
2023-02-14T05:51:07.719Z,3.75
2023-02-14T05:53:36.874Z,3.74
2023-02-14T05:56:07.417Z,3.72
2023-02-14T05:58:36.907Z,3.73
2023-02-14T06:01:05.782Z,3.73
2023-02-14T06:03:34.590Z,3.74
2023-02-14T06:06:06.392Z,3.71
2023-02-14T06:08:38.186Z,3.71
2023-02-14T06:11:07.317Z,3.74
2023-02-14T06:13:35.878Z,3.76
2023-02-14T06:16:05.392Z,3.76
2023-02-14T06:18:34.270Z,3.76
2023-02-14T06:21:04.703Z,3.77
2023-02-14T06:23:34.503Z,3.80
2023-02-14T06:26:03.878Z,3.84
2023-02-14T06:28:32.284Z,3.84
2023-02-14T06:31:01.574Z,3.85
2023-02-14T06:33:30.600Z,3.89
2023-02-14T06:35:59.563Z,3.90
2023-02-14T06:38:28.573Z,3.97
2023-02-14T06:41:05.092Z,4.03
2023-02-14T06:43:35.153Z,4.11
2023-02-14T06:46:04.881Z,4.17
2023-02-14T06:48:35.079Z,4.17
2023-02-14T06:51:04.689Z,4.21
2023-02-14T06:53:34.688Z,4.27
2023-02-14T06:56:05.939Z,4.37
2023-02-14T06:58:35.354Z,4.38
2023-02-14T07:01:04.366Z,4.40
2023-02-14T07:03:33.568Z,4.40
2023-02-14T07:06:03.793Z,4.46
2023-02-14T07:08:34.748Z,4.48
2023-02-14T07:11:04.006Z,4.49
2023-02-14T07:13:33.562Z,4.50
2023-02-14T07:16:03.033Z,4.54
2023-02-14T07:18:32.124Z,4.59
2023-02-14T07:21:01.314Z,4.65
2023-02-14T07:23:30.197Z,4.67
2023-02-14T07:25:59.084Z,4.72
2023-02-14T07:28:27.677Z,4.72
2023-02-14T07:31:03.109Z,4.79
2023-02-14T07:33:32.207Z,4.76
2023-02-14T07:36:05.816Z,4.81
2023-02-14T07:38:35.576Z,4.86
2023-02-14T07:41:04.722Z,4.85
2023-02-14T07:43:34.688Z,4.81
2023-02-14T07:46:03.743Z,4.90
2023-02-14T07:48:34.156Z,4.94
2023-02-14T07:51:03.774Z,4.93
2023-02-14T07:53:34.012Z,4.89
2023-02-14T07:56:05.805Z,4.89
2023-02-14T07:58:36.169Z,4.90
2023-02-14T08:01:04.862Z,4.87
2023-02-14T08:03:35.944Z,4.83
2023-02-14T08:06:05.108Z,4.80
2023-02-14T08:08:33.681Z,4.84
2023-02-14T08:11:03.295Z,4.83
2023-02-14T08:13:34.683Z,4.79
2023-02-14T08:16:09.772Z,4.77
2023-02-14T08:18:40.778Z,4.78
2023-02-14T08:21:11.467Z,4.85
2023-02-14T08:23:40.028Z,4.80
2023-02-14T08:26:08.920Z,4.83
2023-02-14T08:28:37.499Z,4.78
2023-02-14T08:31:07.072Z,4.81
2023-02-14T08:33:35.780Z,4.78
2023-02-14T08:36:04.889Z,4.82
2023-02-14T08:38:33.782Z,4.79
2023-02-14T08:41:08.077Z,4.75
2023-02-14T08:43:38.408Z,4.77
2023-02-14T08:46:07.867Z,4.78
2023-02-14T08:48:39.537Z,4.69
2023-02-14T08:51:12.438Z,4.68
2023-02-14T08:53:44.651Z,4.67
2023-02-14T08:56:15.771Z,4.72
2023-02-14T08:58:45.302Z,4.66
2023-02-14T09:01:17.199Z,4.66
2023-02-14T09:03:49.063Z,4.68
2023-02-14T09:06:18.057Z,4.68
2023-02-14T09:08:47.176Z,4.67
2023-02-14T09:11:24.622Z,4.66
2023-02-14T09:13:54.392Z,4.67
2023-02-14T09:16:25.121Z,4.65
2023-02-14T09:18:55.081Z,4.63
2023-02-14T09:21:30.382Z,4.66
2023-02-14T09:23:58.960Z,4.71
2023-02-14T09:26:30.137Z,4.70
2023-02-14T09:28:59.407Z,4.69
2023-02-14T09:31:28.386Z,4.71
2023-02-14T09:34:15.732Z,4.72
2023-02-14T09:37:08.065Z,4.73
2023-02-14T09:39:38.030Z,4.71
2023-02-14T09:42:07.290Z,4.71
2023-02-14T09:44:51.822Z,4.70
2023-02-14T09:47:35.875Z,4.75
2023-02-14T09:50:07.920Z,4.70
2023-02-14T09:52:38.020Z,4.64
2023-02-14T09:55:13.453Z,4.67
2023-02-14T09:58:22.292Z,4.70
2023-02-14T10:01:15.844Z,4.64
2023-02-14T10:04:25.545Z,4.70
2023-02-14T10:07:00.895Z,4.68
2023-02-14T10:10:02.952Z,4.69
2023-02-14T10:12:37.196Z,4.64
2023-02-14T10:15:19.673Z,4.61
2023-02-14T10:18:02.290Z,4.62
2023-02-14T10:20:39.688Z,4.63
2023-02-14T10:23:35.914Z,4.59
2023-02-14T10:26:07.798Z,4.58
2023-02-14T10:28:46.387Z,4.56
2023-02-14T10:31:45.189Z,4.58
2023-02-14T10:38:04.383Z,4.56
2023-02-14T10:40:39.151Z,4.55
2023-02-14T10:43:28.588Z,4.57
2023-02-14T10:46:29.532Z,4.54
2023-02-14T10:49:26.188Z,4.56
2023-02-14T10:52:18.243Z,4.51
2023-02-14T10:54:57.672Z,4.52
2023-02-14T10:57:30.335Z,4.55
2023-02-14T11:00:08.733Z,4.47
2023-02-14T11:02:45.043Z,4.50
2023-02-14T11:05:36.035Z,4.51
2023-02-14T11:08:21.814Z,4.45
2023-02-14T11:10:51.383Z,4.40
2023-02-14T11:13:33.320Z,4.40
2023-02-14T11:16:05.632Z,4.35
2023-02-14T11:18:40.013Z,4.28
2023-02-14T11:21:11.725Z,4.29
2023-02-14T11:23:43.604Z,4.21
2023-02-14T11:26:17.044Z,4.23
2023-02-14T11:28:57.243Z,4.19
2023-02-14T11:31:32.749Z,4.18
2023-02-14T11:34:05.508Z,4.22
2023-02-14T11:36:43.351Z,4.27
2023-02-14T11:39:20.853Z,4.29
2023-02-14T11:41:54.146Z,4.26
2023-02-14T11:44:28.895Z,4.35
2023-02-14T11:47:17.368Z,4.44
2023-02-14T11:50:06.475Z,4.50
2023-02-14T11:52:56.440Z,4.51
2023-02-14T11:55:30.519Z,4.49
2023-02-14T11:58:06.653Z,4.52
2023-02-14T12:00:37.025Z,4.49
2023-02-14T12:03:09.493Z,4.49
2023-02-14T12:05:50.402Z,4.50
2023-02-14T12:08:27.601Z,4.59
2023-02-14T12:11:23.098Z,4.57
2023-02-14T12:13:59.793Z,4.54
2023-02-14T12:16:47.031Z,4.56
2023-02-14T12:19:24.953Z,4.61
2023-02-14T12:22:01.606Z,4.66
2023-02-14T12:24:34.657Z,4.72
2023-02-14T12:27:10.482Z,4.75
2023-02-14T12:29:56.251Z,4.79
2023-02-14T12:32:32.330Z,4.79
2023-02-14T12:35:18.433Z,4.91
2023-02-14T12:38:16.440Z,4.87
2023-02-14T12:41:10.345Z,4.85
2023-02-14T12:43:51.001Z,4.87
2023-02-14T12:46:52.476Z,4.95
2023-02-14T12:49:52.812Z,4.94
2023-02-14T12:52:50.048Z,4.97
2023-02-14T12:55:30.618Z,4.96
2023-02-14T12:58:27.344Z,4.97
2023-02-14T13:01:09.016Z,4.98
2023-02-14T13:04:11.473Z,4.96
2023-02-14T13:07:02.709Z,5.04
2023-02-14T13:09:53.878Z,5.06
2023-02-14T13:12:46.499Z,5.17
2023-02-14T13:15:24.402Z,5.17
2023-02-14T13:18:14.268Z,5.12
2023-02-14T13:20:52.040Z,5.10
2023-02-14T13:23:38.869Z,5.12
2023-02-14T13:26:22.723Z,5.12
2023-02-14T13:29:18.119Z,5.04
2023-02-14T13:31:48.275Z,5.01
2023-02-14T13:34:32.705Z,4.99
2023-02-14T13:37:06.786Z,5.05
2023-02-14T13:39:48.008Z,5.06
2023-02-14T13:42:49.359Z,5.14
2023-02-14T13:45:30.600Z,5.15
2023-02-14T13:48:11.796Z,5.20
2023-02-14T13:50:50.124Z,5.17
2023-02-14T13:53:47.920Z,5.19
2023-02-14T13:56:19.905Z,5.15
2023-02-14T13:58:56.616Z,5.12
2023-02-14T14:01:31.691Z,5.15
2023-02-14T14:04:05.068Z,5.16
2023-02-14T14:07:02.778Z,5.15
2023-02-14T14:09:40.865Z,5.10
2023-02-14T14:12:25.058Z,5.12
2023-02-14T14:15:05.890Z,5.10
2023-02-14T14:17:37.756Z,5.08
2023-02-14T14:20:43.402Z,5.06
2023-02-14T14:23:37.316Z,5.03
2023-02-14T14:26:40.715Z,4.99
2023-02-14T14:29:30.618Z,5.02
2023-02-14T14:32:01.769Z,5.04
2023-02-14T22:08:42.420Z,2.95
2023-02-14T22:11:14.074Z,2.89
2023-02-14T22:13:43.914Z,2.80
2023-02-14T22:16:15.314Z,2.73
2023-02-14T22:18:43.821Z,2.68
2023-02-14T22:21:14.775Z,2.63
2023-02-14T22:23:43.688Z,2.66
2023-02-14T22:26:24.431Z,2.65
2023-02-14T22:28:57.230Z,2.64
2023-02-14T22:31:27.808Z,2.61
2023-02-14T22:33:57.054Z,2.53
2023-02-14T22:36:25.577Z,2.49
2023-02-14T22:38:54.086Z,2.49
2023-02-14T22:41:24.322Z,2.46
2023-02-14T22:43:54.030Z,2.44
2023-02-14T22:46:28.687Z,2.39
2023-02-14T22:48:58.042Z,2.36
2023-02-14T22:51:34.944Z,2.34
2023-02-14T22:54:15.173Z,2.32
2023-02-14T22:56:47.137Z,2.26
2023-02-14T22:59:22.905Z,2.26
2023-02-14T23:01:53.341Z,2.27
2023-02-14T23:04:24.715Z,2.20
2023-02-14T23:06:53.963Z,2.16
2023-02-14T23:09:23.897Z,2.13
2023-02-14T23:11:52.463Z,2.11
2023-02-14T23:14:39.926Z,2.06
2023-02-14T23:17:24.613Z,2.04
2023-02-14T23:20:12.083Z,2.04
2023-02-14T23:22:41.513Z,2.04
2023-02-14T23:25:12.413Z,2.00
2023-02-14T23:27:44.381Z,1.97
2023-02-14T23:30:18.709Z,1.97
2023-02-14T23:32:48.333Z,1.95
2023-02-14T23:35:16.991Z,1.91
2023-02-14T23:37:45.477Z,1.86
2023-02-14T23:40:13.870Z,1.84
2023-02-14T23:42:42.228Z,1.82
2023-02-14T23:45:29.195Z,1.79
2023-02-14T23:48:02.976Z,1.77
2023-02-14T23:50:31.750Z,1.74
2023-02-14T23:53:00.022Z,1.70
2023-02-14T23:55:28.497Z,1.64
2023-02-14T23:57:56.977Z,1.61
